sensor_id;sensor_type;location;lat;lon;timestamp;pressure;altitude;pressure_sealevel;temperature;humidity
36664;BME280;53333;51.976;20.144;2023-01-19T00:02:04;98871.56;;;3.36;74.48
36664;BME280;53333;51.976;20.144;2023-01-19T00:04:37;98879.47;;;3.36;74.53
36664;BME280;53333;51.976;20.144;2023-01-19T00:07:21;98877.56;;;3.39;74.37
36664;BME280;53333;51.976;20.144;2023-01-19T00:09:54;98880.25;;;3.38;74.41
36664;BME280;53333;51.976;20.144;2023-01-19T00:12:27;98881.25;;;3.35;74.56
36664;BME280;53333;51.976;20.144;2023-01-19T00:15:01;98876.88;;;3.34;74.57
36664;BME280;53333;51.976;20.144;2023-01-19T00:17:35;98876.94;;;3.33;74.61
36664;BME280;53333;51.976;20.144;2023-01-19T00:20:09;98876.94;;;3.33;74.55
36664;BME280;53333;51.976;20.144;2023-01-19T00:22:42;98883.06;;;3.33;74.75
36664;BME280;53333;51.976;20.144;2023-01-19T00:25:15;98880.38;;;3.35;74.70
36664;BME280;53333;51.976;20.144;2023-01-19T00:27:48;98876.03;;;3.34;74.55
36664;BME280;53333;51.976;20.144;2023-01-19T00:30:21;98889.25;;;3.34;74.62
36664;BME280;53333;51.976;20.144;2023-01-19T00:32:56;98900.69;;;3.33;74.71
36664;BME280;53333;51.976;20.144;2023-01-19T00:35:30;98901.63;;;3.32;74.60
36664;BME280;53333;51.976;20.144;2023-01-19T00:38:03;98903.41;;;3.31;74.70
36664;BME280;53333;51.976;20.144;2023-01-19T00:40:37;98912.22;;;3.30;74.68
36664;BME280;53333;51.976;20.144;2023-01-19T00:43:10;98912.28;;;3.28;74.71
36664;BME280;53333;51.976;20.144;2023-01-19T00:45:44;98918.56;;;3.26;74.75
36664;BME280;53333;51.976;20.144;2023-01-19T00:48:18;98922.97;;;3.25;74.71
36664;BME280;53333;51.976;20.144;2023-01-19T00:50:51;98922.09;;;3.25;74.81
36664;BME280;53333;51.976;20.144;2023-01-19T00:53:25;98908.06;;;3.24;74.88
36664;BME280;53333;51.976;20.144;2023-01-19T00:55:59;98912.50;;;3.24;74.77
36664;BME280;53333;51.976;20.144;2023-01-19T00:58:32;98914.25;;;3.23;74.80
36664;BME280;53333;51.976;20.144;2023-01-19T01:01:05;98909.97;;;3.21;74.75
36664;BME280;53333;51.976;20.144;2023-01-19T01:03:40;98914.44;;;3.19;74.63
36664;BME280;53333;51.976;20.144;2023-01-19T01:06:15;98917.13;;;3.17;74.86
36664;BME280;53333;51.976;20.144;2023-01-19T01:08:48;98913.63;;;3.17;74.87
36664;BME280;53333;51.976;20.144;2023-01-19T01:11:21;98911.06;;;3.15;74.70
36664;BME280;53333;51.976;20.144;2023-01-19T01:13:54;98912.84;;;3.15;74.87
36664;BME280;53333;51.976;20.144;2023-01-19T01:16:29;98908.47;;;3.14;74.87
36664;BME280;53333;51.976;20.144;2023-01-19T01:19:03;98905.88;;;3.12;74.81
36664;BME280;53333;51.976;20.144;2023-01-19T01:21:37;98904.88;;;3.16;74.90
36664;BME280;53333;51.976;20.144;2023-01-19T01:24:10;98895.03;;;3.20;74.74
36664;BME280;53333;51.976;20.144;2023-01-19T01:26:43;98883.53;;;3.22;74.54
36664;BME280;53333;51.976;20.144;2023-01-19T01:29:16;98887.84;;;3.23;74.53
36664;BME280;53333;51.976;20.144;2023-01-19T01:31:49;98891.38;;;3.24;74.58
36664;BME280;53333;51.976;20.144;2023-01-19T01:34:24;98886.94;;;3.24;74.52
36664;BME280;53333;51.976;20.144;2023-01-19T01:36:57;98880.72;;;3.25;74.36
36664;BME280;53333;51.976;20.144;2023-01-19T01:39:30;98879.88;;;3.25;74.39
36664;BME280;53333;51.976;20.144;2023-01-19T01:42:08;98877.19;;;3.26;74.39
36664;BME280;53333;51.976;20.144;2023-01-19T01:44:48;98879.94;;;3.23;74.44
36664;BME280;53333;51.976;20.144;2023-01-19T01:47:28;98880.06;;;3.20;74.48
36664;BME280;53333;51.976;20.144;2023-01-19T01:50:09;98872.38;;;3.14;74.44
36664;BME280;53333;51.976;20.144;2023-01-19T01:52:48;98878.72;;;3.10;74.49
36664;BME280;53333;51.976;20.144;2023-01-19T01:55:42;98870.97;;;3.05;74.37
36664;BME280;53333;51.976;20.144;2023-01-19T01:58:18;98876.34;;;3.02;74.56
36664;BME280;53333;51.976;20.144;2023-01-19T02:00:51;98879.06;;;3.01;74.50
36664;BME280;53333;51.976;20.144;2023-01-19T02:03:50;98874.75;;;2.98;74.57
36664;BME280;53333;51.976;20.144;2023-01-19T02:06:26;98885.28;;;2.98;74.49
36664;BME280;53333;51.976;20.144;2023-01-19T02:09:06;98880.97;;;2.97;74.63
36664;BME280;53333;51.976;20.144;2023-01-19T02:11:59;98893.25;;;2.97;74.56
36664;BME280;53333;51.976;20.144;2023-01-19T02:14:50;98894.19;;;2.96;74.54
36664;BME280;53333;51.976;20.144;2023-01-19T02:17:23;98899.44;;;2.97;74.44
36664;BME280;53333;51.976;20.144;2023-01-19T02:19:56;98896.72;;;2.99;74.52
36664;BME280;53333;51.976;20.144;2023-01-19T02:22:33;98898.47;;;2.98;74.52
36664;BME280;53333;51.976;20.144;2023-01-19T02:25:11;98895.00;;;2.98;74.44
36664;BME280;53333;51.976;20.144;2023-01-19T02:27:44;98895.72;;;3.01;74.32
36664;BME280;53333;51.976;20.144;2023-01-19T02:30:17;98895.63;;;3.04;74.50
36664;BME280;53333;51.976;20.144;2023-01-19T02:32:51;98902.56;;;3.07;74.41
36664;BME280;53333;51.976;20.144;2023-01-19T02:35:24;98896.38;;;3.08;74.31
36664;BME280;53333;51.976;20.144;2023-01-19T02:37:57;98895.44;;;3.09;74.48
36664;BME280;53333;51.976;20.144;2023-01-19T02:40:32;98893.53;;;3.13;74.39
36664;BME280;53333;51.976;20.144;2023-01-19T02:43:06;98897.84;;;3.15;74.39
36664;BME280;53333;51.976;20.144;2023-01-19T02:45:41;98894.25;;;3.18;74.38
36664;BME280;53333;51.976;20.144;2023-01-19T02:48:14;98896.72;;;3.22;74.26
36664;BME280;53333;51.976;20.144;2023-01-19T02:50:50;98894.03;;;3.24;74.19
36664;BME280;53333;51.976;20.144;2023-01-19T02:53:55;98887.50;;;3.33;74.18
36664;BME280;53333;51.976;20.144;2023-01-19T02:56:43;98885.72;;;3.33;74.18
36664;BME280;53333;51.976;20.144;2023-01-19T02:59:39;98880.44;;;3.33;73.96
36664;BME280;53333;51.976;20.144;2023-01-19T03:02:23;98882.16;;;3.34;74.10
36664;BME280;53333;51.976;20.144;2023-01-19T03:05:07;98882.16;;;3.34;74.02
36664;BME280;53333;51.976;20.144;2023-01-19T03:07:53;98884.81;;;3.34;74.07
36664;BME280;53333;51.976;20.144;2023-01-19T03:10:32;98890.94;;;3.35;74.06
36664;BME280;53333;51.976;20.144;2023-01-19T03:13:15;98886.47;;;3.37;74.13
36664;BME280;53333;51.976;20.144;2023-01-19T03:15:53;98889.91;;;3.39;73.97
36664;BME280;53333;51.976;20.144;2023-01-19T03:18:31;98896.81;;;3.41;73.90
36664;BME280;53333;51.976;20.144;2023-01-19T03:21:06;98904.69;;;3.43;73.76
36664;BME280;53333;51.976;20.144;2023-01-19T03:23:41;98904.63;;;3.44;73.62
36664;BME280;53333;51.976;20.144;2023-01-19T03:26:23;98914.28;;;3.45;73.66
36664;BME280;53333;51.976;20.144;2023-01-19T03:29:01;98919.63;;;3.44;73.69
36664;BME280;53333;51.976;20.144;2023-01-19T03:31:36;98916.31;;;3.39;73.86
36664;BME280;53333;51.976;20.144;2023-01-19T03:34:11;98913.72;;;3.37;74.03
36664;BME280;53333;51.976;20.144;2023-01-19T03:36:48;98916.44;;;3.36;73.83
36664;BME280;53333;51.976;20.144;2023-01-19T03:39:24;98917.34;;;3.35;73.67
36664;BME280;53333;51.976;20.144;2023-01-19T03:42:01;98914.75;;;3.33;73.74
36664;BME280;53333;51.976;20.144;2023-01-19T03:44:36;98912.16;;;3.32;73.81
36664;BME280;53333;51.976;20.144;2023-01-19T03:47:12;98913.06;;;3.32;73.86
36664;BME280;53333;51.976;20.144;2023-01-19T03:49:47;98907.78;;;3.32;73.80
36664;BME280;53333;51.976;20.144;2023-01-19T03:52:28;98909.47;;;3.33;73.81
36664;BME280;53333;51.976;20.144;2023-01-19T03:55:04;98922.72;;;3.32;73.85
36664;BME280;53333;51.976;20.144;2023-01-19T03:57:37;98927.94;;;3.33;73.77
36664;BME280;53333;51.976;20.144;2023-01-19T04:00:13;98928.84;;;3.34;73.81
36664;BME280;53333;51.976;20.144;2023-01-19T04:02:46;98934.97;;;3.34;73.76
36664;BME280;53333;51.976;20.144;2023-01-19T04:05:20;98938.41;;;3.36;73.70
36664;BME280;53333;51.976;20.144;2023-01-19T04:07:52;98941.91;;;3.37;73.62
36664;BME280;53333;51.976;20.144;2023-01-19T04:10:25;98951.53;;;3.38;73.62
36664;BME280;53333;51.976;20.144;2023-01-19T04:12:59;98948.78;;;3.41;73.62
36664;BME280;53333;51.976;20.144;2023-01-19T04:15:35;98953.16;;;3.42;73.59
36664;BME280;53333;51.976;20.144;2023-01-19T04:18:08;98946.03;;;3.44;73.56
36664;BME280;53333;51.976;20.144;2023-01-19T04:20:41;98945.13;;;3.45;73.60
36664;BME280;53333;51.976;20.144;2023-01-19T04:23:14;98940.69;;;3.45;73.64
36664;BME280;53333;51.976;20.144;2023-01-19T04:25:47;98942.47;;;3.45;73.48
36664;BME280;53333;51.976;20.144;2023-01-19T04:28:20;98940.69;;;3.45;73.57
36664;BME280;53333;51.976;20.144;2023-01-19T04:30:54;98946.81;;;3.46;73.76
36664;BME280;53333;51.976;20.144;2023-01-19T04:33:27;98953.03;;;3.45;73.51
36664;BME280;53333;51.976;20.144;2023-01-19T04:36:01;98953.09;;;3.43;73.74
36664;BME280;53333;51.976;20.144;2023-01-19T04:38:34;98952.28;;;3.41;73.74
36664;BME280;53333;51.976;20.144;2023-01-19T04:41:07;98938.28;;;3.39;73.66
36664;BME280;53333;51.976;20.144;2023-01-19T04:43:40;98955.06;;;3.38;73.65
36664;BME280;53333;51.976;20.144;2023-01-19T04:46:15;98963.03;;;3.37;73.71
36664;BME280;53333;51.976;20.144;2023-01-19T04:48:48;98965.72;;;3.35;73.63
36664;BME280;53333;51.976;20.144;2023-01-19T04:51:21;98971.00;;;3.35;73.73
36664;BME280;53333;51.976;20.144;2023-01-19T04:53:54;98972.81;;;3.33;73.90
36664;BME280;53333;51.976;20.144;2023-01-19T04:56:28;98970.13;;;3.35;73.73
36664;BME280;53333;51.976;20.144;2023-01-19T04:59:01;98970.13;;;3.35;73.56
36664;BME280;53333;51.976;20.144;2023-01-19T05:01:35;98973.72;;;3.34;73.71
36664;BME280;53333;51.976;20.144;2023-01-19T05:04:08;98969.34;;;3.33;73.79
36664;BME280;53333;51.976;20.144;2023-01-19T05:06:41;98973.72;;;3.34;73.96
36664;BME280;53333;51.976;20.144;2023-01-19T05:09:14;98978.06;;;3.35;73.92
36664;BME280;53333;51.976;20.144;2023-01-19T05:11:47;98974.56;;;3.34;73.89
36664;BME280;53333;51.976;20.144;2023-01-19T05:14:20;98983.28;;;3.36;73.75
36664;BME280;53333;51.976;20.144;2023-01-19T05:16:55;98985.91;;;3.36;73.90
36664;BME280;53333;51.976;20.144;2023-01-19T05:19:28;98996.47;;;3.36;73.83
36664;BME280;53333;51.976;20.144;2023-01-19T05:22:02;99001.63;;;3.39;73.73
36664;BME280;53333;51.976;20.144;2023-01-19T05:24:35;99012.19;;;3.39;73.74
36664;BME280;53333;51.976;20.144;2023-01-19T05:27:08;99019.16;;;3.42;73.70
36664;BME280;53333;51.976;20.144;2023-01-19T05:29:41;99027.97;;;3.41;73.72
36664;BME280;53333;51.976;20.144;2023-01-19T05:32:16;99027.13;;;3.40;73.72
36664;BME280;53333;51.976;20.144;2023-01-19T05:34:49;99032.47;;;3.39;73.62
36664;BME280;53333;51.976;20.144;2023-01-19T05:37:22;99042.97;;;3.40;73.52
36664;BME280;53333;51.976;20.144;2023-01-19T05:39:55;99034.19;;;3.40;73.67
36664;BME280;53333;51.976;20.144;2023-01-19T05:42:28;99039.41;;;3.41;73.62
36664;BME280;53333;51.976;20.144;2023-01-19T05:45:04;99019.22;;;3.40;73.57
36664;BME280;53333;51.976;20.144;2023-01-19T05:47:39;99015.72;;;3.40;73.72
36664;BME280;53333;51.976;20.144;2023-01-19T05:50:12;99017.47;;;3.39;73.40
36664;BME280;53333;51.976;20.144;2023-01-19T05:52:45;99028.03;;;3.39;73.53
36664;BME280;53333;51.976;20.144;2023-01-19T05:55:18;99037.75;;;3.39;73.44
36664;BME280;53333;51.976;20.144;2023-01-19T05:57:51;99043.09;;;3.37;73.57
36664;BME280;53333;51.976;20.144;2023-01-19T06:00:27;99054.50;;;3.38;73.50
36664;BME280;53333;51.976;20.144;2023-01-19T06:03:01;99059.81;;;3.36;73.46
36664;BME280;53333;51.976;20.144;2023-01-19T06:05:37;99066.00;;;3.37;73.36
36664;BME280;53333;51.976;20.144;2023-01-19T06:08:10;99062.41;;;3.38;73.41
36664;BME280;53333;51.976;20.144;2023-01-19T06:10:43;99076.44;;;3.40;73.42
36664;BME280;53333;51.976;20.144;2023-01-19T06:13:16;99091.34;;;3.41;73.11
36664;BME280;53333;51.976;20.144;2023-01-19T06:15:55;99109.03;;;3.39;73.25
36664;BME280;53333;51.976;20.144;2023-01-19T06:18:30;99114.41;;;3.36;73.40
36664;BME280;53333;51.976;20.144;2023-01-19T06:21:04;99108.28;;;3.35;73.42
36664;BME280;53333;51.976;20.144;2023-01-19T06:23:37;99110.16;;;3.32;73.40
36664;BME280;53333;51.976;20.144;2023-01-19T06:26:10;99110.97;;;3.34;73.49
36664;BME280;53333;51.976;20.144;2023-01-19T06:28:44;99105.69;;;3.34;73.43
36664;BME280;53333;51.976;20.144;2023-01-19T06:31:17;99117.06;;;3.36;73.45
36664;BME280;53333;51.976;20.144;2023-01-19T06:33:51;99110.00;;;3.36;73.36
36664;BME280;53333;51.976;20.144;2023-01-19T06:36:24;99119.59;;;3.39;73.47
36664;BME280;53333;51.976;20.144;2023-01-19T06:38:57;99121.38;;;3.38;73.39
36664;BME280;53333;51.976;20.144;2023-01-19T06:41:31;99118.69;;;3.40;73.39
36664;BME280;53333;51.976;20.144;2023-01-19T06:44:04;99122.97;;;3.42;73.41
36664;BME280;53333;51.976;20.144;2023-01-19T06:46:37;99124.75;;;3.42;73.25
36664;BME280;53333;51.976;20.144;2023-01-19T06:49:11;99116.84;;;3.42;73.32
36664;BME280;53333;51.976;20.144;2023-01-19T06:51:44;99117.63;;;3.44;73.31
36664;BME280;53333;51.976;20.144;2023-01-19T06:54:17;99111.44;;;3.45;73.25
36664;BME280;53333;51.976;20.144;2023-01-19T06:56:50;99110.56;;;3.44;73.23
36664;BME280;53333;51.976;20.144;2023-01-19T06:59:24;99109.78;;;3.42;73.25
36664;BME280;53333;51.976;20.144;2023-01-19T07:01:57;99109.78;;;3.42;73.36
36664;BME280;53333;51.976;20.144;2023-01-19T07:04:51;99119.53;;;3.40;73.17
36664;BME280;53333;51.976;20.144;2023-01-19T07:07:24;99108.97;;;3.40;73.16
36664;BME280;53333;51.976;20.144;2023-01-19T07:09:57;99116.03;;;3.40;73.18
36664;BME280;53333;51.976;20.144;2023-01-19T07:12:30;99116.09;;;3.38;73.39
36664;BME280;53333;51.976;20.144;2023-01-19T07:15:06;99117.84;;;3.38;73.33
36664;BME280;53333;51.976;20.144;2023-01-19T07:17:40;99118.78;;;3.37;73.39
36664;BME280;53333;51.976;20.144;2023-01-19T07:20:14;99113.47;;;3.38;73.23
36664;BME280;53333;51.976;20.144;2023-01-19T07:22:54;99125.66;;;3.41;73.23
36664;BME280;53333;51.976;20.144;2023-01-19T07:25:28;99127.41;;;3.42;73.13
36664;BME280;53333;51.976;20.144;2023-01-19T07:28:01;99125.63;;;3.42;73.26
36664;BME280;53333;51.976;20.144;2023-01-19T07:30:35;99126.59;;;3.40;73.18
36664;BME280;53333;51.976;20.144;2023-01-19T07:33:08;99125.72;;;3.39;73.27
36664;BME280;53333;51.976;20.144;2023-01-19T07:35:46;99136.19;;;3.42;73.22
36664;BME280;53333;51.976;20.144;2023-01-19T07:38:20;99143.19;;;3.43;73.15
36664;BME280;53333;51.976;20.144;2023-01-19T07:40:59;99145.72;;;3.47;73.17
36664;BME280;53333;51.976;20.144;2023-01-19T07:43:32;99147.53;;;3.44;73.04
36664;BME280;53333;51.976;20.144;2023-01-19T07:46:05;99150.75;;;3.54;72.84
36664;BME280;53333;51.976;20.144;2023-01-19T07:48:39;99153.81;;;3.42;72.76
36664;BME280;53333;51.976;20.144;2023-01-19T07:51:16;99164.53;;;3.37;73.03
36664;BME280;53333;51.976;20.144;2023-01-19T07:53:49;99167.31;;;3.33;73.12
36664;BME280;53333;51.976;20.144;2023-01-19T07:56:23;99178.94;;;3.27;73.27
36664;BME280;53333;51.976;20.144;2023-01-19T07:58:58;99188.84;;;3.20;73.34
36664;BME280;53333;51.976;20.144;2023-01-19T08:01:31;99189.84;;;3.18;73.47
36664;BME280;53333;51.976;20.144;2023-01-19T08:04:04;99180.13;;;3.18;73.50
36664;BME280;53333;51.976;20.144;2023-01-19T08:06:39;99179.28;;;3.18;73.46
36664;BME280;53333;51.976;20.144;2023-01-19T08:09:12;99181.00;;;3.19;73.41
36664;BME280;53333;51.976;20.144;2023-01-19T08:11:45;99187.09;;;3.21;73.44
36664;BME280;53333;51.976;20.144;2023-01-19T08:14:18;99188.81;;;3.22;73.43
36664;BME280;53333;51.976;20.144;2023-01-19T08:16:51;99178.94;;;3.27;73.37
36664;BME280;53333;51.976;20.144;2023-01-19T08:19:24;99164.78;;;3.30;73.31
36664;BME280;53333;51.976;20.144;2023-01-19T08:21:59;99171.69;;;3.34;73.22
36664;BME280;53333;51.976;20.144;2023-01-19T08:24:33;99164.69;;;3.33;73.20
36664;BME280;53333;51.976;20.144;2023-01-19T08:27:06;99173.47;;;3.33;73.31
36664;BME280;53333;51.976;20.144;2023-01-19T08:29:40;99168.13;;;3.35;73.29
36664;BME280;53333;51.976;20.144;2023-01-19T08:32:13;99166.31;;;3.37;73.23
36664;BME280;53333;51.976;20.144;2023-01-19T08:34:46;99171.50;;;3.40;73.35
36664;BME280;53333;51.976;20.144;2023-01-19T08:37:21;99167.00;;;3.42;73.42
36664;BME280;53333;51.976;20.144;2023-01-19T08:39:55;99170.44;;;3.44;73.20
36664;BME280;53333;51.976;20.144;2023-01-19T08:42:28;99172.13;;;3.47;73.18
36664;BME280;53333;51.976;20.144;2023-01-19T08:45:01;99164.22;;;3.47;73.22
36664;BME280;53333;51.976;20.144;2023-01-19T08:47:34;99163.28;;;3.48;73.09
36664;BME280;53333;51.976;20.144;2023-01-19T08:50:08;99171.09;;;3.51;73.04
36664;BME280;53333;51.976;20.144;2023-01-19T08:52:43;99160.47;;;3.52;73.19
36664;BME280;53333;51.976;20.144;2023-01-19T08:55:16;99152.44;;;3.55;73.19
36664;BME280;53333;51.976;20.144;2023-01-19T08:57:50;99160.25;;;3.58;73.12
36664;BME280;53333;51.976;20.144;2023-01-19T09:00:24;99153.13;;;3.60;73.15
36664;BME280;53333;51.976;20.144;2023-01-19T09:02:58;99137.22;;;3.62;73.05
36664;BME280;53333;51.976;20.144;2023-01-19T09:05:34;99138.91;;;3.64;73.00
36664;BME280;53333;51.976;20.144;2023-01-19T09:08:12;99132.59;;;3.69;73.00
36664;BME280;53333;51.976;20.144;2023-01-19T09:10:47;99133.28;;;3.74;72.96
36664;BME280;53333;51.976;20.144;2023-01-19T09:13:25;99145.50;;;3.76;73.06
36664;BME280;53333;51.976;20.144;2023-01-19T09:16:01;99152.53;;;3.77;72.94
36664;BME280;53333;51.976;20.144;2023-01-19T09:18:34;99156.03;;;3.78;72.97
36664;BME280;53333;51.976;20.144;2023-01-19T09:21:08;99160.34;;;3.80;73.04
36664;BME280;53333;51.976;20.144;2023-01-19T09:23:42;99163.78;;;3.82;72.96
36664;BME280;53333;51.976;20.144;2023-01-19T09:26:15;99162.03;;;3.83;72.85
36664;BME280;53333;51.976;20.144;2023-01-19T09:28:48;99168.94;;;3.86;72.86
36664;BME280;53333;51.976;20.144;2023-01-19T09:31:21;99163.59;;;3.87;72.78
36664;BME280;53333;51.976;20.144;2023-01-19T09:33:55;99177.66;;;3.88;72.95
36664;BME280;53333;51.976;20.144;2023-01-19T09:36:28;99183.78;;;3.90;72.77
36664;BME280;53333;51.976;20.144;2023-01-19T09:39:04;99185.50;;;3.91;72.77
36664;BME280;53333;51.976;20.144;2023-01-19T09:41:38;99190.97;;;3.86;72.79
36664;BME280;53333;51.976;20.144;2023-01-19T09:44:17;99193.66;;;3.85;72.95
36664;BME280;53333;51.976;20.144;2023-01-19T09:46:51;99193.88;;;3.78;72.88
36664;BME280;53333;51.976;20.144;2023-01-19T09:49:27;99186.06;;;3.75;72.88
36664;BME280;53333;51.976;20.144;2023-01-19T09:52:03;99186.19;;;3.72;72.95
36664;BME280;53333;51.976;20.144;2023-01-19T09:54:40;99179.16;;;3.71;72.98
36664;BME280;53333;51.976;20.144;2023-01-19T09:57:15;99176.63;;;3.68;72.89
36664;BME280;53333;51.976;20.144;2023-01-19T09:59:49;99168.69;;;3.68;73.05
36664;BME280;53333;51.976;20.144;2023-01-19T10:02:31;99169.53;;;3.70;73.06
36664;BME280;53333;51.976;20.144;2023-01-19T10:05:20;99164.16;;;3.72;73.05
36664;BME280;53333;51.976;20.144;2023-01-19T10:08:08;99158.81;;;3.73;73.12
36664;BME280;53333;51.976;20.144;2023-01-19T10:10:47;99155.38;;;3.71;72.96
36664;BME280;53333;51.976;20.144;2023-01-19T10:13:35;99156.97;;;3.77;73.06
36664;BME280;53333;51.976;20.144;2023-01-19T10:16:25;99146.34;;;3.78;73.10
36664;BME280;53333;51.976;20.144;2023-01-19T10:19:14;99150.50;;;3.84;73.00
36664;BME280;53333;51.976;20.144;2023-01-19T10:21:50;99142.53;;;3.86;72.87
36664;BME280;53333;51.976;20.144;2023-01-19T10:24:27;99145.13;;;3.87;72.85
36664;BME280;53333;51.976;20.144;2023-01-19T10:27:19;99149.38;;;3.91;72.82
36664;BME280;53333;51.976;20.144;2023-01-19T10:29:52;99151.09;;;3.92;72.85
36664;BME280;53333;51.976;20.144;2023-01-19T10:32:28;99149.25;;;3.94;73.01
36664;BME280;53333;51.976;20.144;2023-01-19T10:35:13;99153.44;;;4.00;72.86
36664;BME280;53333;51.976;20.144;2023-01-19T10:37:54;99149.03;;;4.00;72.64
36664;BME280;53333;51.976;20.144;2023-01-19T10:40:32;99157.69;;;4.04;72.69
36664;BME280;53333;51.976;20.144;2023-01-19T10:43:35;99162.81;;;4.09;72.58
36664;BME280;53333;51.976;20.144;2023-01-19T10:46:19;99157.53;;;4.09;72.68
36664;BME280;53333;51.976;20.144;2023-01-19T10:48:54;99164.63;;;4.07;72.43
36664;BME280;53333;51.976;20.144;2023-01-19T10:51:27;99175.22;;;4.07;72.62
36664;BME280;53333;51.976;20.144;2023-01-19T10:54:02;99170.75;;;4.09;72.64
36664;BME280;53333;51.976;20.144;2023-01-19T10:56:37;99176.84;;;4.11;72.46
36664;BME280;53333;51.976;20.144;2023-01-19T11:02:11;99176.66;;;4.15;72.36
36664;BME280;53333;51.976;20.144;2023-01-19T11:04:48;99178.41;;;4.16;72.16
36664;BME280;53333;51.976;20.144;2023-01-19T11:07:27;99181.03;;;4.16;72.36
36664;BME280;53333;51.976;20.144;2023-01-19T11:10:20;99173.78;;;4.22;72.31
36664;BME280;53333;51.976;20.144;2023-01-19T11:13:00;99169.47;;;4.19;72.35
36664;BME280;53333;51.976;20.144;2023-01-19T11:15:39;99172.09;;;4.19;72.25
36664;BME280;53333;51.976;20.144;2023-01-19T11:18:23;99159.63;;;4.23;72.32
36664;BME280;53333;51.976;20.144;2023-01-19T11:20:59;99157.09;;;4.19;72.35
36664;BME280;53333;51.976;20.144;2023-01-19T11:23:34;99151.75;;;4.21;72.30
36664;BME280;53333;51.976;20.144;2023-01-19T11:26:14;99144.72;;;4.22;72.17
36664;BME280;53333;51.976;20.144;2023-01-19T11:28:48;99139.41;;;4.22;72.25
36664;BME280;53333;51.976;20.144;2023-01-19T11:31:31;99142.00;;;4.23;72.34
36664;BME280;53333;51.976;20.144;2023-01-19T11:34:23;99133.00;;;4.27;72.22
36664;BME280;53333;51.976;20.144;2023-01-19T11:36:59;99122.72;;;4.19;72.13
36664;BME280;53333;51.976;20.144;2023-01-19T11:39:45;99128.78;;;4.23;72.43
36664;BME280;53333;51.976;20.144;2023-01-19T11:42:19;99126.19;;;4.22;72.25
36664;BME280;53333;51.976;20.144;2023-01-19T11:44:58;99131.38;;;4.25;72.28
36664;BME280;53333;51.976;20.144;2023-01-19T11:47:38;99126.81;;;4.28;72.21
36664;BME280;53333;51.976;20.144;2023-01-19T11:50:21;99121.41;;;4.31;72.06
36664;BME280;53333;51.976;20.144;2023-01-19T11:52:58;99117.84;;;4.32;72.02
36664;BME280;53333;51.976;20.144;2023-01-19T11:55:36;99117.75;;;4.34;72.17
36664;BME280;53333;51.976;20.144;2023-01-19T11:58:13;99122.19;;;4.33;72.18
36664;BME280;53333;51.976;20.144;2023-01-19T12:00:49;99119.56;;;4.33;71.96
36664;BME280;53333;51.976;20.144;2023-01-19T12:03:27;99114.28;;;4.33;72.03
36664;BME280;53333;51.976;20.144;2023-01-19T12:06:06;99117.69;;;4.35;72.13
36664;BME280;53333;51.976;20.144;2023-01-19T12:08:44;99121.28;;;4.34;72.05
36664;BME280;53333;51.976;20.144;2023-01-19T12:11:21;99124.84;;;4.33;72.10
36664;BME280;53333;51.976;20.144;2023-01-19T12:13:55;99113.28;;;4.36;71.89
36664;BME280;53333;51.976;20.144;2023-01-19T12:16:29;99110.66;;;4.36;72.04
36664;BME280;53333;51.976;20.144;2023-01-19T12:19:06;99109.72;;;4.37;71.97
36664;BME280;53333;51.976;20.144;2023-01-19T12:21:44;99117.59;;;4.39;71.94
36664;BME280;53333;51.976;20.144;2023-01-19T12:24:26;99106.09;;;4.40;72.02
36664;BME280;53333;51.976;20.144;2023-01-19T12:27:06;99106.09;;;4.40;72.02
36664;BME280;53333;51.976;20.144;2023-01-19T12:29:46;99110.53;;;4.39;72.01
36664;BME280;53333;51.976;20.144;2023-01-19T12:32:31;99111.25;;;4.43;71.72
36664;BME280;53333;51.976;20.144;2023-01-19T12:35:13;99098.16;;;4.40;71.84
36664;BME280;53333;51.976;20.144;2023-01-19T12:38:23;99098.84;;;4.45;71.83
36664;BME280;53333;51.976;20.144;2023-01-19T12:41:19;99092.69;;;4.44;72.02
36664;BME280;53333;51.976;20.144;2023-01-19T12:44:24;99101.34;;;4.48;71.78
36664;BME280;53333;51.976;20.144;2023-01-19T12:47:19;99094.47;;;4.44;71.95
36664;BME280;53333;51.976;20.144;2023-01-19T12:49:57;99104.19;;;4.43;71.90
36664;BME280;53333;51.976;20.144;2023-01-19T12:52:39;99104.25;;;4.42;71.89
36664;BME280;53333;51.976;20.144;2023-01-19T12:55:25;99107.78;;;4.42;71.96
36664;BME280;53333;51.976;20.144;2023-01-19T12:58:04;99106.94;;;4.40;71.83
36664;BME280;53333;51.976;20.144;2023-01-19T13:00:40;99102.53;;;4.41;71.98
36664;BME280;53333;51.976;20.144;2023-01-19T13:03:43;99096.19;;;4.45;71.70
36664;BME280;53333;51.976;20.144;2023-01-19T13:06:16;99090.09;;;4.43;71.87
36664;BME280;53333;51.976;20.144;2023-01-19T13:08:59;99090.91;;;4.45;71.96
36664;BME280;53333;51.976;20.144;2023-01-19T13:11:34;99094.53;;;4.42;71.95
36664;BME280;53333;51.976;20.144;2023-01-19T13:14:34;99099.78;;;4.44;71.87
36664;BME280;53333;51.976;20.144;2023-01-19T13:17:28;99100.44;;;4.49;71.92
36664;BME280;53333;51.976;20.144;2023-01-19T13:23:15;99110.97;;;4.50;71.85
36664;BME280;53333;51.976;20.144;2023-01-19T13:25:51;99119.00;;;4.47;71.89
36664;BME280;53333;51.976;20.144;2023-01-19T13:28:30;99119.88;;;4.48;71.80
36664;BME280;53333;51.976;20.144;2023-01-19T13:31:05;99119.81;;;4.49;71.69
36664;BME280;53333;51.976;20.144;2023-01-19T13:33:47;99132.13;;;4.50;71.62
36664;BME280;53333;51.976;20.144;2023-01-19T13:36:28;99131.19;;;4.51;71.68
36664;BME280;53333;51.976;20.144;2023-01-19T13:39:04;99129.53;;;4.49;71.59
36664;BME280;53333;51.976;20.144;2023-01-19T13:41:39;99134.03;;;4.47;71.49
36664;BME280;53333;51.976;20.144;2023-01-19T13:44:18;99134.94;;;4.46;71.75
36664;BME280;53333;51.976;20.144;2023-01-19T13:46:55;99138.50;;;4.45;71.68
36664;BME280;53333;51.976;20.144;2023-01-19T13:49:32;99142.88;;;4.46;71.60
36664;BME280;53333;51.976;20.144;2023-01-19T13:52:12;99144.59;;;4.47;71.58
36664;BME280;53333;51.976;20.144;2023-01-19T13:54:47;99127.91;;;4.45;71.69
36664;BME280;53333;51.976;20.144;2023-01-19T13:57:25;99127.84;;;4.46;71.66